Weather at Orlando International Airport

Public forecast

Using degrees Fahrenheit for public forecast. Weather courtesy of forecast.io.

Current aviation weather report (METAR) for Orlando International Airport

Retrieved 2021/07/29 03:53 UTC (47 minutes ago):

KMCO 290353Z 22005KT 10SM FEW011 SCT250 26/24 A3003 RMK AO2 SLP167 T02610239

Aviation forecast (TAF) for Orlando International Airport

Retrieved 2021-07-29 00:46 UTC (4 hours ago):

TAF KMCO 282344Z 2900/3006 25004KT P6SM FEW040 SCT250 FM292000 25007KT P6SM VCTS FEW015 SCT030CB SCT250 TEMPO 2921/2924 2SM TSRA SCT015 BKN030CB FM300000 VRB03KT P6SM FEW035 SCT080 BKN250